Time;durP1;ratioP1;P1;durP2;ratioP2;P2;SDS_P1;SDS_P2;PMS_P1;PMS_P2;Temp;Humidity;BMP_temperature;BMP_pressure;BME280_temperature;BME280_humidity;BME280_pressure;Samples;Min_cycle;Max_cycle;Signal;HPM_P1;HPM_P2
2022/12/14 00:01:16;;;;;;;24.70;14.10;;;;;;;-3.62;90.58;100540.25;5014815;28;20052;-72
2022/12/14 00:03:42;;;;;;;25.33;14.18;;;;;;;-3.62;90.28;100540.25;5014712;28;20113;-72
2022/12/14 00:06:14;;;;;;;24.70;13.13;;;;;;;-3.67;90.36;100536.09;5014731;28;20445;-73
2022/12/14 00:08:40;;;;;;;26.35;13.27;;;;;;;-3.65;90.13;100535.22;5014864;28;20033;-74
2022/12/14 00:11:06;;;;;;;26.02;14.57;;;;;;;-3.65;90.05;100530.19;5014712;28;20037;-72
2022/12/14 00:13:31;;;;;;;24.13;13.02;;;;;;;-3.79;90.21;100496.69;5014485;28;20116;-73
2022/12/14 00:15:56;;;;;;;23.30;13.00;;;;;;;-3.66;89.61;100510.00;5014521;28;20029;-72
2022/12/14 00:18:21;;;;;;;22.55;12.43;;;;;;;-3.77;89.52;100489.94;5014423;28;20029;-72
2022/12/14 00:20:47;;;;;;;22.90;13.45;;;;;;;-3.68;90.13;100507.50;5014594;28;20065;-72
2022/12/14 00:23:12;;;;;;;23.98;13.40;;;;;;;-3.68;89.22;100514.25;5014659;28;20030;-77
2022/12/14 00:25:37;;;;;;;25.60;13.35;;;;;;;-3.68;89.51;100510.03;5014524;28;20137;-74
2022/12/14 00:28:03;;;;;;;24.05;13.27;;;;;;;-3.80;89.44;100487.44;5014269;28;20022;-73
2022/12/14 00:30:28;;;;;;;25.38;13.65;;;;;;;-3.69;89.56;100513.41;5014250;28;20084;-74
2022/12/14 00:32:53;;;;;;;23.50;12.45;;;;;;;-3.69;89.37;100515.94;5014303;28;20033;-73
2022/12/14 00:35:19;;;;;;;25.63;13.98;;;;;;;-3.81;89.23;100496.72;5014236;28;20021;-73
2022/12/14 00:37:44;;;;;;;21.63;12.10;;;;;;;-3.73;89.38;100511.78;5014334;28;20057;-73
2022/12/14 00:40:11;;;;;;;24.23;12.90;;;;;;;-3.77;89.49;100510.94;5014502;28;20120;-75
2022/12/14 00:42:36;;;;;;;25.30;12.82;;;;;;;-4.01;89.32;100470.84;5014346;28;20072;-78
2022/12/14 00:45:04;;;;;;;23.55;12.15;;;;;;;-3.84;89.07;100501.75;5014074;28;20030;-72
2022/12/14 00:47:29;;;;;;;23.80;13.02;;;;;;;-3.87;88.71;100489.19;5014156;28;20049;-77
2022/12/14 00:49:55;;;;;;;24.05;12.95;;;;;;;-3.93;88.98;100484.22;5013298;28;20018;-73
2022/12/14 00:52:20;;;;;;;24.40;12.93;;;;;;;-4.11;88.72;100454.97;5014074;28;20117;-72
2022/12/14 00:54:45;;;;;;;24.85;13.75;;;;;;;-3.95;88.88;100475.81;5014285;28;20029;-83
2022/12/14 00:57:11;;;;;;;22.80;14.35;;;;;;;-4.06;89.01;100453.22;5013843;28;20029;-76
2022/12/14 00:59:36;;;;;;;24.27;12.80;;;;;;;-3.99;89.20;100463.25;5013701;28;20046;-73
2022/12/14 01:02:02;;;;;;;22.98;12.90;;;;;;;-3.98;89.07;100468.28;5014031;28;20105;-74
2022/12/14 01:04:28;;;;;;;24.73;12.88;;;;;;;-3.97;88.78;100459.03;5013852;28;20026;-75
2022/12/14 01:06:54;;;;;;;25.92;13.60;;;;;;;-3.96;89.09;100456.47;5013844;28;20034;-76
2022/12/14 01:09:21;;;;;;;24.48;12.90;;;;;;;-3.95;89.21;100455.63;5013783;28;20037;-74
2022/12/14 01:11:47;;;;;;;23.95;13.98;;;;;;;-4.13;88.70;100425.53;5013696;28;20029;-73
2022/12/14 01:14:14;;;;;;;25.02;12.80;;;;;;;-4.00;88.49;100438.88;5013621;28;20036;-80
2022/12/14 01:16:39;;;;;;;25.08;12.88;;;;;;;-4.07;88.53;100425.50;5013711;28;20053;-72
2022/12/14 01:19:06;;;;;;;28.60;13.63;;;;;;;-3.96;88.55;100440.53;5013736;28;20147;-74
2022/12/14 01:21:32;;;;;;;24.40;13.30;;;;;;;-3.90;88.66;100445.50;5013584;28;20022;-85
2022/12/14 01:23:59;;;;;;;25.45;12.82;;;;;;;-3.91;88.28;100442.16;5013520;28;20469;-81
2022/12/14 01:26:26;;;;;;;26.35;13.45;;;;;;;-3.91;88.68;100434.59;5013596;28;20033;-83
2022/12/14 01:28:57;;;;;;;25.75;13.02;;;;;;;-4.00;88.89;100418.72;5013566;28;20105;-73
2022/12/14 01:31:26;;;;;;;22.67;13.15;;;;;;;-3.90;88.42;100443.00;5013469;28;20029;-72
2022/12/14 01:33:52;;;;;;;20.80;12.07;;;;;;;-3.90;88.36;100430.38;5013425;28;20030;-76
2022/12/14 01:36:20;;;;;;;25.90;14.20;;;;;;;-3.89;87.84;100432.03;5013751;28;20044;-84
2022/12/14 01:38:46;;;;;;;23.48;13.77;;;;;;;-3.89;88.09;100434.56;5013483;28;20099;-78
2022/12/14 01:41:23;;;;;;;23.88;13.15;;;;;;;-3.90;88.34;100430.38;5013353;28;20033;-75
2022/12/14 01:43:51;;;;;;;23.70;12.57;;;;;;;-3.95;87.86;100430.41;5013319;28;20380;-82
2022/12/14 01:46:26;;;;;;;24.85;13.35;;;;;;;-3.93;88.13;100443.00;5013311;28;20428;-82
2022/12/14 01:48:56;;;;;;;22.05;12.40;;;;;;;-3.97;88.04;100444.72;5013514;28;20022;-76
2022/12/14 01:51:25;;;;;;;24.38;13.32;;;;;;;-3.95;88.80;100442.19;5014503;28;20018;-85
2022/12/14 01:53:51;;;;;;;24.85;14.00;;;;;;;-3.96;88.80;100443.03;5016370;28;20018;-79
2022/12/14 01:56:17;;;;;;;22.08;12.95;;;;;;;-3.98;88.79;100439.69;5015738;28;20240;-84
2022/12/14 01:58:42;;;;;;;23.17;13.15;;;;;;;-4.02;89.08;100425.47;5013577;28;20113;-85
2022/12/14 02:01:10;;;;;;;24.90;13.45;;;;;;;-3.98;88.97;100430.44;5013763;28;20046;-86
2022/12/14 02:03:40;;;;;;;25.35;12.90;;;;;;;-4.10;88.57;100415.44;5017202;28;20029;-84
2022/12/14 02:06:16;;;;;;;23.60;13.18;;;;;;;-3.96;89.08;100430.44;5017539;28;20033;-85
2022/12/14 02:08:44;;;;;;;23.55;13.13;;;;;;;-4.13;88.43;100405.38;5017298;28;20026;-86
2022/12/14 02:11:10;;;;;;;26.25;13.68;;;;;;;-3.96;88.34;100417.81;5017242;28;20089;-86
2022/12/14 02:13:39;;;;;;;22.30;12.93;;;;;;;-4.08;88.74;100398.59;5086748;23;20057;-81
2022/12/14 02:16:05;;;;;;;24.30;12.98;;;;;;;-4.05;88.99;100406.13;5036514;28;20075;-84
2022/12/14 02:18:31;;;;;;;24.13;12.77;;;;;;;-4.11;88.73;100394.44;5036958;28;20350;-83
2022/12/14 02:21:26;;;;;;;24.13;14.07;;;;;;;-3.96;88.86;100411.09;5036837;28;20028;-83
2022/12/14 02:24:06;;;;;;;22.50;12.55;;;;;;;-3.94;89.22;100411.91;5036554;28;20026;-85
2022/12/14 02:27:09;;;;;;;23.60;13.15;;;;;;;-3.93;88.79;100407.69;5036435;28;20018;-84
2022/12/14 02:30:12;;;;;;;26.67;13.32;;;;;;;-3.95;88.26;100406.88;5036547;28;20025;-86
2022/12/14 02:32:56;;;;;;;22.00;12.20;;;;;;;-3.95;88.59;100405.19;4956145;29;20530;-86
2022/12/14 02:35:49;;;;;;;22.48;12.70;;;;;;;-3.96;88.53;100403.53;4940087;29;20442;-78
2022/12/14 02:38:27;;;;;;;24.20;12.80;;;;;;;-3.97;88.74;100399.34;4956033;29;20091;-86
2022/12/14 02:41:04;;;;;;;22.92;12.93;;;;;;;-3.98;88.42;100399.34;4956099;29;20035;-80
2022/12/14 02:43:41;;;;;;;23.95;12.70;;;;;;;-4.01;88.75;100397.72;4955947;28;20514;-78
2022/12/14 02:46:33;;;;;;;22.80;11.98;;;;;;;-4.05;88.23;100399.41;4956126;28;20042;-82
2022/12/14 02:49:12;;;;;;;22.70;12.15;;;;;;;-4.28;88.49;100355.13;4956056;28;20106;-86
2022/12/14 02:51:55;;;;;;;22.15;12.57;;;;;;;-4.07;88.80;100395.22;4955835;29;20050;-84
2022/12/14 02:55:02;;;;;;;23.65;12.43;;;;;;;-4.07;88.99;100392.72;4955923;29;20035;-72
2022/12/14 02:57:38;;;;;;;24.23;13.07;;;;;;;-4.25;88.95;100365.16;4955802;29;20247;-72
2022/12/14 03:00:05;;;;;;;20.83;12.70;;;;;;;-4.07;88.78;100401.13;4955626;29;20028;-71
2022/12/14 03:02:35;;;;;;;23.40;12.75;;;;;;;-4.10;88.42;100390.22;4966048;28;20054;-73
2022/12/14 03:05:01;;;;;;;21.75;13.40;;;;;;;-4.01;88.30;100397.72;5035918;28;20108;-72
2022/12/14 03:07:37;;;;;;;22.08;12.60;;;;;;;-4.01;88.43;100395.19;5035791;28;20538;-78
2022/12/14 03:10:14;;;;;;;21.38;12.07;;;;;;;-4.02;87.97;100380.06;5035866;28;20021;-71
2022/12/14 03:12:44;;;;;;;22.40;12.20;;;;;;;-4.03;88.53;100386.81;5034771;28;20444;-72
2022/12/14 03:15:14;;;;;;;24.27;12.93;;;;;;;-4.06;88.18;100374.22;5035718;28;20477;-79
2022/12/14 03:17:43;;;;;;;24.13;12.82;;;;;;;-3.96;88.08;100385.03;5035343;28;20385;-77
2022/12/14 03:20:17;;;;;;;23.38;12.07;;;;;;;-3.92;88.02;100379.13;5035580;28;20029;-73
2022/12/14 03:22:58;;;;;;;24.25;12.57;;;;;;;-3.91;88.21;100385.84;5035496;28;20372;-73
2022/12/14 03:25:40;;;;;;;22.58;12.80;;;;;;;-3.91;87.97;100380.78;5035342;28;20087;-73
2022/12/14 03:28:16;;;;;;;22.88;11.50;;;;;;;-3.92;87.84;100385.00;5035437;28;20365;-73
2022/12/14 03:30:46;;;;;;;20.35;11.90;;;;;;;-4.22;88.09;100330.69;5035422;28;20028;-78
2022/12/14 03:33:19;;;;;;;20.80;12.60;;;;;;;-3.90;87.69;100375.72;5034869;28;20021;-74
2022/12/14 03:35:53;;;;;;;21.05;11.23;;;;;;;-4.04;87.21;100342.25;5035150;28;20131;-82
2022/12/14 03:38:37;;;;;;;20.90;11.43;;;;;;;-3.99;87.66;100348.09;5033969;28;20037;-70
2022/12/14 03:41:03;;;;;;;20.50;11.77;;;;;;;-3.89;87.23;100357.22;5035202;28;20030;-71
2022/12/14 03:43:54;;;;;;;20.38;11.52;;;;;;;-3.94;87.36;100345.50;5035293;28;20037;-84
2022/12/14 03:46:37;;;;;;;21.05;11.75;;;;;;;-3.99;86.91;100343.03;5034564;28;20468;-74
2022/12/14 03:49:10;;;;;;;22.25;11.48;;;;;;;-3.93;86.99;100348.03;5034878;28;20060;-72
2022/12/14 03:51:59;;;;;;;22.35;12.50;;;;;;;-3.94;86.89;100348.00;5035070;28;20380;-81
2022/12/14 03:54:37;;;;;;;20.73;11.32;;;;;;;-4.24;87.09;100294.56;5034817;28;20090;-73
2022/12/14 03:57:42;;;;;;;19.58;11.18;;;;;;;-4.01;87.40;100327.09;5034773;28;20022;-75
2022/12/14 04:00:11;;;;;;;21.67;12.18;;;;;;;-3.93;87.77;100335.41;4954460;28;20529;-85
2022/12/14 04:02:42;;;;;;;21.30;11.32;;;;;;;-3.94;88.01;100328.66;4954393;29;20035;-73
2022/12/14 04:05:15;;;;;;;20.90;12.23;;;;;;;-3.95;88.12;100337.09;4954552;29;20138;-86
2022/12/14 04:07:44;;;;;;;21.85;11.88;;;;;;;-3.96;87.26;100330.38;4954679;29;20032;-87
2022/12/14 04:19:05;;;;;;;20.58;11.70;;;;;;;-3.96;86.99;100317.78;4897251;29;20040;-87
2022/12/14 04:21:40;;;;;;;21.83;12.50;;;;;;;-3.95;87.28;100314.41;4881738;29;20092;-80
2022/12/14 04:27:38;;;;;;;20.13;11.73;;;;;;;-3.97;87.15;100308.53;4897629;29;20428;-85
2022/12/14 04:30:08;;;;;;;21.75;12.00;;;;;;;-3.96;87.41;100306.84;4897205;29;20510;-73
2022/12/14 04:32:38;;;;;;;21.13;11.65;;;;;;;-3.97;86.75;100300.16;4896763;29;20040;-83
2022/12/14 04:35:11;;;;;;;21.33;11.00;;;;;;;-4.18;87.22;100265.94;4896917;29;20507;-85
2022/12/14 04:37:39;;;;;;;21.92;11.55;;;;;;;-4.23;87.58;100255.88;4956704;28;20548;-73
2022/12/14 04:40:07;;;;;;;19.98;12.25;;;;;;;-3.98;87.36;100294.25;4973330;28;20128;-76
2022/12/14 04:42:41;;;;;;;21.08;12.10;;;;;;;-3.99;87.38;100291.75;4973009;28;20154;-73
2022/12/14 04:45:32;;;;;;;21.40;12.50;;;;;;;-3.99;87.21;100287.56;4973166;28;20038;-74
2022/12/14 04:48:14;;;;;;;20.63;11.13;;;;;;;-4.14;87.44;100273.44;4956723;28;20411;-79
2022/12/14 04:50:45;;;;;;;21.73;11.40;;;;;;;-4.20;87.53;100260.09;5026912;28;20087;-75
2022/12/14 04:53:22;;;;;;;21.73;12.05;;;;;;;-4.10;87.86;100272.56;5033819;28;20139;-73
2022/12/14 04:55:59;;;;;;;23.83;12.10;;;;;;;-4.00;87.24;100283.38;5016004;28;20882;-86
2022/12/14 04:58:28;;;;;;;19.70;11.90;;;;;;;-4.04;87.85;100275.00;5033830;28;20377;-82
2022/12/14 05:01:14;;;;;;;21.63;12.32;;;;;;;-4.01;87.46;100281.69;5033693;28;20104;-84
2022/12/14 05:03:52;;;;;;;22.95;11.70;;;;;;;-3.99;87.63;100280.00;5033517;28;20461;-75
2022/12/14 05:06:30;;;;;;;24.10;11.40;;;;;;;-4.00;87.90;100275.81;5033672;28;20029;-83
2022/12/14 05:09:12;;;;;;;22.50;12.15;;;;;;;-4.00;87.51;100268.25;5033757;28;20033;-72
2022/12/14 05:11:53;;;;;;;22.30;11.70;;;;;;;-4.08;87.20;100258.25;5033368;28;20027;-74
2022/12/14 05:14:33;;;;;;;22.88;11.73;;;;;;;-4.10;87.50;100246.50;5031695;28;20115;-72
2022/12/14 05:17:00;;;;;;;18.50;11.05;;;;;;;-3.97;87.45;100265.66;5033813;28;20033;-86
2022/12/14 05:19:25;;;;;;;23.42;11.45;;;;;;;-4.26;87.57;100222.34;5033377;28;20029;-86
2022/12/14 05:21:52;;;;;;;21.50;12.00;;;;;;;-3.94;87.33;100272.34;5033414;28;20030;-86
2022/12/14 05:24:18;;;;;;;23.50;11.70;;;;;;;-3.96;87.09;100267.34;5033262;28;20033;-86
2022/12/14 05:26:44;;;;;;;21.70;11.23;;;;;;;-3.93;86.86;100259.75;5033373;28;20034;-86
2022/12/14 05:29:09;;;;;;;21.58;11.50;;;;;;;-4.00;87.29;100245.53;5033132;28;20132;-86
2022/12/14 05:31:35;;;;;;;21.95;11.07;;;;;;;-3.87;87.00;100259.66;5033787;28;20112;-86
2022/12/14 05:34:00;;;;;;;19.52;11.43;;;;;;;-3.88;86.52;100255.47;5033356;28;20044;-85
2022/12/14 05:36:25;;;;;;;21.75;10.27;;;;;;;-3.99;86.25;100238.81;5033022;28;20030;-87
2022/12/14 05:38:51;;;;;;;21.48;11.40;;;;;;;-4.04;86.76;100233.81;5033196;28;20032;-87
2022/12/14 05:41:16;;;;;;;21.40;11.13;;;;;;;-3.88;86.90;100257.16;5033139;28;20032;-73
2022/12/14 05:43:41;;;;;;;18.33;11.07;;;;;;;-3.94;87.08;100240.41;5033161;28;20408;-73
2022/12/14 05:46:10;;;;;;;21.90;11.60;;;;;;;-3.87;87.20;100249.56;5033074;28;20021;-73
2022/12/14 05:48:35;;;;;;;20.85;11.82;;;;;;;-3.96;87.04;100236.25;5033053;28;20108;-75
2022/12/14 05:51:09;;;;;;;21.55;11.93;;;;;;;-3.87;87.48;100249.56;5033049;28;20109;-76
2022/12/14 05:53:35;;;;;;;20.92;11.32;;;;;;;-3.91;86.46;100249.63;5033550;28;20065;-73
2022/12/14 05:56:01;;;;;;;20.20;11.43;;;;;;;-3.91;86.00;100252.16;5033073;28;20151;-75
2022/12/14 05:58:26;;;;;;;20.40;11.52;;;;;;;-3.87;87.07;100252.09;5032985;28;20059;-80
2022/12/14 06:00:52;;;;;;;21.27;11.00;;;;;;;-3.87;86.89;100247.03;5032910;28;20026;-72
2022/12/14 06:03:17;;;;;;;23.27;12.18;;;;;;;-3.86;87.45;100253.75;5033069;28;20032;-87
2022/12/14 06:05:42;;;;;;;23.00;11.65;;;;;;;-3.91;87.17;100255.50;5032595;28;20065;-81
2022/12/14 06:08:07;;;;;;;20.38;11.40;;;;;;;-3.90;87.25;100247.09;5015234;28;20109;-77
2022/12/14 06:10:33;;;;;;;21.58;10.90;;;;;;;-3.91;87.20;100252.16;5033025;28;20057;-86
2022/12/14 06:12:58;;;;;;;19.98;11.20;;;;;;;-3.93;87.50;100241.22;5032671;28;20089;-73
2022/12/14 06:15:24;;;;;;;20.45;11.05;;;;;;;-4.00;87.33;100239.66;5032769;28;20029;-76
2022/12/14 06:17:49;;;;;;;19.92;11.00;;;;;;;-3.98;86.90;100241.31;5032816;28;20030;-85
2022/12/14 06:20:14;;;;;;;21.25;11.07;;;;;;;-3.99;87.66;100236.28;5032679;28;20033;-73
2022/12/14 06:22:40;;;;;;;21.70;11.85;;;;;;;-4.07;88.40;100234.69;5032549;28;20456;-78
2022/12/14 06:25:06;;;;;;;22.60;11.50;;;;;;;-4.06;87.73;100238.03;5032816;28;20064;-82
2022/12/14 06:27:31;;;;;;;22.40;11.48;;;;;;;-4.08;88.74;100238.06;5032944;28;20029;-72
2022/12/14 06:29:57;;;;;;;25.70;12.45;;;;;;;-4.46;88.31;100172.19;5032620;28;20529;-78
2022/12/14 06:32:22;;;;;;;21.70;11.88;;;;;;;-4.10;89.38;100236.44;5032573;28;20040;-75
2022/12/14 06:34:48;;;;;;;20.05;11.75;;;;;;;-4.18;89.02;100226.44;5032338;28;20033;-80
2022/12/14 06:37:13;;;;;;;20.77;12.02;;;;;;;-4.11;88.39;100245.69;5032642;28;20037;-78
2022/12/14 06:39:39;;;;;;;20.42;11.80;;;;;;;-4.13;88.44;100241.50;5032557;28;20068;-73
2022/12/14 06:42:06;;;;;;;24.55;11.55;;;;;;;-4.18;88.51;100238.22;5032618;28;20030;-77
2022/12/14 06:44:31;;;;;;;22.27;12.82;;;;;;;-4.21;89.17;100243.28;5032540;28;20040;-73
2022/12/14 06:46:57;;;;;;;19.67;11.20;;;;;;;-4.19;89.38;100244.94;5032403;28;20025;-72
2022/12/14 06:49:22;;;;;;;20.95;12.07;;;;;;;-4.22;89.83;100241.63;5035108;28;20039;-73
2022/12/14 06:51:48;;;;;;;24.42;11.80;;;;;;;-4.18;90.30;100245.78;5036062;28;20427;-74
2022/12/14 06:54:14;;;;;;;23.20;12.18;;;;;;;-4.30;90.42;100239.19;5036118;28;20033;-72
2022/12/14 06:56:41;;;;;;;22.33;11.63;;;;;;;-4.31;90.79;100239.22;5035917;28;20499;-79
2022/12/14 06:59:07;;;;;;;24.33;12.90;;;;;;;-4.24;91.34;100254.22;5036008;28;20026;-79
2022/12/14 07:01:34;;;;;;;20.45;11.40;;;;;;;-4.33;91.23;100236.69;5036045;28;20487;-76
2022/12/14 07:03:59;;;;;;;21.48;11.82;;;;;;;-4.27;90.91;100250.91;5035728;28;20033;-79
2022/12/14 07:06:27;;;;;;;22.15;11.70;;;;;;;-4.29;91.34;100250.09;5035948;28;20030;-77
2022/12/14 07:08:54;;;;;;;23.08;11.23;;;;;;;-4.29;90.97;100260.19;5035828;28;20033;-74
2022/12/14 07:11:20;;;;;;;21.67;11.77;;;;;;;-4.27;91.49;100259.31;5035852;28;20139;-79
2022/12/14 07:13:46;;;;;;;20.67;11.68;;;;;;;-4.40;91.58;100247.72;5035691;28;20046;-75
2022/12/14 07:16:21;;;;;;;18.85;11.68;;;;;;;-4.35;92.03;100259.41;5035713;28;20120;-78
2022/12/14 07:18:48;;;;;;;23.27;12.13;;;;;;;-4.41;92.22;100262.00;5034548;28;20021;-79
2022/12/14 07:21:15;;;;;;;20.83;12.05;;;;;;;-4.48;91.97;100264.59;5035619;28;20408;-73
2022/12/14 07:23:43;;;;;;;20.38;12.52;;;;;;;-4.53;92.47;100259.59;5035140;28;20113;-80
2022/12/14 07:26:18;;;;;;;20.98;11.80;;;;;;;-4.64;92.11;100252.16;5035244;28;20036;-71
2022/12/14 07:28:46;;;;;;;22.85;12.75;;;;;;;-4.65;92.17;100258.03;5035298;28;20090;-79
2022/12/14 07:31:14;;;;;;;21.40;12.07;;;;;;;-4.72;92.71;100264.00;5034979;28;20030;-82
2022/12/14 07:33:40;;;;;;;25.23;12.85;;;;;;;-4.77;92.44;100263.19;5035337;28;20025;-80
2022/12/14 07:36:08;;;;;;;22.08;13.25;;;;;;;-4.79;92.32;100261.56;5035148;28;20095;-72
2022/12/14 07:38:36;;;;;;;23.30;13.25;;;;;;;-4.89;93.11;100249.91;5035302;28;20032;-72
2022/12/14 07:41:11;;;;;;;26.17;13.88;;;;;;;-4.82;92.58;100264.09;5035060;28;20388;-82
2022/12/14 07:43:39;;;;;;;26.65;14.77;;;;;;;-4.94;92.50;100242.38;5034868;28;20037;-77
2022/12/14 07:46:10;;;;;;;25.63;14.32;;;;;;;-4.82;92.95;100259.03;5033982;28;20026;-79
2022/12/14 07:48:36;;;;;;;23.60;14.07;;;;;;;-4.85;92.62;100266.63;5034788;28;20384;-80
2022/12/14 07:51:09;;;;;;;24.83;13.45;;;;;;;-4.88;93.40;100267.50;5034946;28;20032;-79
2022/12/14 07:53:36;;;;;;;21.67;13.45;;;;;;;-4.91;94.15;100285.19;5034690;28;20033;-78
2022/12/14 07:56:08;;;;;;;23.35;13.18;;;;;;;-4.93;93.90;100284.31;5035084;28;20026;-80
2022/12/14 07:58:34;;;;;;;;;;;;;;;-4.97;93.29;100278.50;5034639;28;20547;-76
2022/12/14 08:01:14;;;;;;;23.17;13.65;;;;;;;-5.15;94.32;100261.03;5034747;28;19917;-77
2022/12/14 08:03:42;;;;;;;25.85;14.98;;;;;;;-5.08;94.03;100285.31;5034597;28;20033;-81
2022/12/14 08:06:10;;;;;;;24.70;14.07;;;;;;;-5.11;94.21;100290.38;5034784;28;20030;-81
2022/12/14 08:08:36;;;;;;;21.55;14.18;;;;;;;-5.13;94.03;100287.00;5034661;28;20024;-81
2022/12/14 08:11:02;;;;;;;21.30;13.10;;;;;;;-5.18;94.41;100283.72;5034582;28;20104;-81
2022/12/14 08:13:27;;;;;;;26.98;16.10;;;;;;;-5.23;94.70;100287.94;5034464;28;20128;-81
2022/12/14 08:15:53;;;;;;;25.50;15.43;;;;;;;-5.24;95.14;100291.28;5034574;28;20453;-79
2022/12/14 08:18:18;;;;;;;23.90;14.50;;;;;;;-5.29;94.36;100288.81;5034653;28;20033;-82
2022/12/14 08:20:48;;;;;;;23.58;14.80;;;;;;;-5.29;93.87;100296.38;5034317;28;20029;-82
2022/12/14 08:23:13;;;;;;;22.67;14.63;;;;;;;-5.36;94.18;100291.38;5034191;28;20116;-79
2022/12/14 08:25:39;;;;;;;26.33;16.00;;;;;;;-5.35;94.30;100298.91;5034351;28;20160;-78
2022/12/14 08:28:04;;;;;;;25.13;16.10;;;;;;;-5.40;94.40;100304.84;5034458;28;20484;-80
2022/12/14 08:30:29;;;;;;;26.33;15.35;;;;;;;-5.43;94.48;100304.84;5016360;28;20611;-81
2022/12/14 08:32:55;;;;;;;24.45;15.10;;;;;;;-5.46;94.80;100305.69;5034277;28;20465;-83
2022/12/14 08:35:20;;;;;;;26.10;14.75;;;;;;;-5.44;94.79;100304.00;5034496;28;20120;-82
2022/12/14 08:37:45;;;;;;;24.67;14.25;;;;;;;-5.56;94.73;100282.28;5034211;28;20030;-87
2022/12/14 08:40:11;;;;;;;26.02;16.05;;;;;;;-5.44;94.79;100306.53;5033832;28;20087;-83
2022/12/14 08:42:36;;;;;;;23.83;15.10;;;;;;;-5.47;95.34;100299.00;5026262;23;20050;-84
2022/12/14 08:45:02;;;;;;;24.80;15.05;;;;;;;-5.48;94.61;100297.34;5014436;28;20042;-82
2022/12/14 08:47:27;;;;;;;23.58;14.98;;;;;;;-5.51;95.43;100295.66;5014573;28;20093;-82
2022/12/14 08:49:53;;;;;;;27.13;14.13;;;;;;;-5.82;94.99;100241.34;5014445;28;20101;-84
2022/12/14 08:52:20;;;;;;;25.35;14.43;;;;;;;-5.59;94.75;100284.81;4996543;28;20033;-83
2022/12/14 08:54:45;;;;;;;23.80;13.77;;;;;;;-5.53;94.40;100299.88;5013890;28;20026;-80
2022/12/14 08:57:11;;;;;;;27.50;14.82;;;;;;;-5.54;94.77;100297.38;5014193;28;20021;-81
2022/12/14 08:59:36;;;;;;;22.73;14.90;;;;;;;-5.91;94.82;100238.91;5014264;28;20022;-83
2022/12/14 09:02:01;;;;;;;23.58;13.93;;;;;;;-5.47;95.24;100305.72;5014154;28;20367;-83
2022/12/14 09:04:27;;;;;;;26.98;14.10;;;;;;;-5.44;95.17;100304.00;5012698;28;20061;-79
2022/12/14 09:06:52;;;;;;;23.50;14.25;;;;;;;-5.39;95.05;100306.50;5013753;28;20014;-84
2022/12/14 09:09:17;;;;;;;23.95;13.88;;;;;;;-5.37;94.54;100303.13;5013859;28;20026;-81
2022/12/14 09:11:44;;;;;;;24.10;13.38;;;;;;;-5.31;94.11;100314.81;5013245;28;20461;-76
2022/12/14 09:14:09;;;;;;;26.13;13.50;;;;;;;-5.28;94.14;100313.13;5013756;28;20087;-81
2022/12/14 09:16:35;;;;;;;22.15;12.98;;;;;;;-5.37;94.27;100293.06;5015886;28;20521;-81
2022/12/14 09:19:00;;;;;;;22.67;13.52;;;;;;;-5.25;94.52;100318.13;5014965;28;20062;-81
2022/12/14 09:21:26;;;;;;;24.08;14.73;;;;;;;-5.40;94.12;100283.03;5013972;28;20069;-85
2022/12/14 09:23:51;;;;;;;22.77;12.98;;;;;;;-5.18;93.35;100318.94;5013495;28;20022;-85
2022/12/14 09:26:19;;;;;;;24.67;13.75;;;;;;;-5.63;93.79;100244.59;5013859;28;20057;-80
2022/12/14 09:28:47;;;;;;;21.50;12.88;;;;;;;-5.15;93.60;100318.09;5013594;28;20052;-83
2022/12/14 09:31:14;;;;;;;21.33;12.48;;;;;;;-5.24;93.42;100297.16;5013640;28;20028;-83
2022/12/14 09:33:40;;;;;;;20.77;12.57;;;;;;;-5.31;93.86;100280.44;5013678;28;20018;-82
2022/12/14 09:36:13;;;;;;;24.05;13.68;;;;;;;-5.22;92.97;100290.44;5013626;28;20037;-82
2022/12/14 09:38:39;;;;;;;21.98;12.93;;;;;;;-5.20;92.68;100287.94;4995875;28;20489;-82
2022/12/14 09:41:17;;;;;;;28.38;13.85;;;;;;;-4.95;92.82;100318.75;5013605;28;20068;-86
2022/12/14 09:43:51;;;;;;;22.67;13.45;;;;;;;-4.91;92.23;100315.38;5013266;28;20148;-82
2022/12/14 09:46:30;;;;;;;21.35;12.38;;;;;;;-4.86;92.74;100317.84;5013768;28;20493;-80
2022/12/14 09:48:56;;;;;;;21.55;13.55;;;;;;;-4.82;92.03;100319.50;5013571;28;20046;-82
2022/12/14 09:51:29;;;;;;;26.50;12.35;;;;;;;-4.79;91.77;100320.31;5013367;28;20033;-82
2022/12/14 09:54:02;;;;;;;22.50;11.77;;;;;;;-4.92;91.98;100291.03;5013138;28;20045;-83
2022/12/14 09:56:27;;;;;;;21.45;12.45;;;;;;;-4.69;92.26;100321.91;4995625;28;20018;-83
2022/12/14 09:58:57;;;;;;;21.90;12.38;;;;;;;-4.81;91.57;100284.25;5013223;28;20106;-81
2022/12/14 10:01:29;;;;;;;23.13;12.48;;;;;;;-4.59;91.26;100309.22;5013030;28;20022;-83
2022/12/14 10:04:12;;;;;;;24.10;13.63;;;;;;;-4.57;91.41;100305.00;5013050;28;20030;-83
2022/12/14 10:07:07;;;;;;;20.77;11.52;;;;;;;-4.53;91.19;100297.38;4995083;28;20389;-83
2022/12/14 10:09:47;;;;;;;22.48;11.68;;;;;;;-4.48;90.20;100299.88;5014453;28;20017;-84
2022/12/14 10:15:59;;;;;;;19.90;11.52;;;;;;;-4.37;90.23;100306.47;5012634;28;20084;-82
2022/12/14 10:18:48;;;;;;;21.27;11.63;;;;;;;-4.36;90.76;100302.25;5012865;28;20109;-79
2022/12/14 10:21:17;;;;;;;19.15;12.02;;;;;;;-4.47;90.12;100269.63;5012882;28;20130;-82
2022/12/14 10:24:13;;;;;;;21.85;13.10;;;;;;;-4.23;90.06;100303.78;5014543;28;20401;-83
2022/12/14 10:35:46;;;;;;;21.70;11.77;;;;;;;-4.04;90.12;100315.34;5023520;22;20050;-80
2022/12/14 10:41:41;;;;;;;21.75;11.93;;;;;;;-3.93;88.87;100316.91;5016786;28;20540;-81
2022/12/14 10:47:37;;;;;;;21.92;12.05;;;;;;;-5.51;88.16;100040.75;4998421;28;20484;-80
2022/12/14 10:52:41;;;;;;;19.10;11.10;;;;;;;-3.91;87.08;100295.88;5026854;23;20118;-84
2022/12/14 10:55:37;;;;;;;21.77;12.13;;;;;;;-3.76;87.22;100310.78;4977159;28;20465;-85
2022/12/14 10:58:03;;;;;;;16.65;10.35;;;;;;;-3.77;87.22;100293.16;4977478;28;20027;-80
2022/12/14 11:00:28;;;;;;;19.17;11.10;;;;;;;-3.70;87.44;100293.91;4976178;28;20073;-78
2022/12/14 11:02:56;;;;;;;20.35;11.70;;;;;;;-3.57;87.03;100311.38;4977167;28;20031;-82
2022/12/14 11:05:33;;;;;;;21.75;11.05;;;;;;;-3.52;87.13;100316.38;4977220;28;20465;-80
2022/12/14 11:07:59;;;;;;;20.45;10.95;;;;;;;-3.48;87.09;100307.91;4977334;28;20031;-76
2022/12/14 11:10:28;;;;;;;19.35;10.48;;;;;;;-3.44;86.00;100301.97;4976991;28;20037;-77
2022/12/14 11:13:05;;;;;;;20.73;10.90;;;;;;;-3.38;85.65;100301.88;4977091;28;20027;-77
2022/12/14 11:15:44;;;;;;;19.67;10.85;;;;;;;-3.38;85.17;100303.56;4976736;28;20037;-78
2022/12/14 11:18:15;;;;;;;20.20;10.95;;;;;;;-3.33;85.37;100307.69;4976824;28;20022;-77
2022/12/14 11:20:51;;;;;;;22.38;11.15;;;;;;;-3.25;85.02;100308.41;4977011;28;20125;-77
2022/12/14 11:23:27;;;;;;;18.95;11.50;;;;;;;-3.24;84.98;100305.03;4975516;28;20050;-78
2022/12/14 11:25:58;;;;;;;20.90;11.77;;;;;;;-3.19;85.15;100313.38;4976711;28;20024;-78
2022/12/14 11:28:32;;;;;;;21.02;10.50;;;;;;;-3.15;85.00;100314.16;4976753;28;20058;-78
2022/12/14 11:31:02;;;;;;;20.33;10.70;;;;;;;-3.16;84.59;100315.00;4976746;28;20549;-79
2022/12/14 11:33:33;;;;;;;20.63;11.10;;;;;;;-3.55;84.72;100240.69;4976663;28;20037;-80
2022/12/14 11:35:59;;;;;;;18.95;10.68;;;;;;;-3.55;83.78;100238.19;4976530;28;20042;-78
2022/12/14 11:38:27;;;;;;;22.58;11.13;;;;;;;-3.07;83.51;100306.47;4976496;28;20099;-78
2022/12/14 11:40:52;;;;;;;19.27;9.90;;;;;;;-3.18;83.66;100288.94;4976325;28;20038;-78
2022/12/14 11:43:38;;;;;;;17.95;10.65;;;;;;;-3.48;83.57;100232.19;4976251;28;20031;-78
2022/12/14 11:46:52;;;;;;;16.70;9.98;;;;;;;-4.29;83.64;100101.41;4954627;28;20038;-79
2022/12/14 11:49:36;;;;;;;17.48;10.00;;;;;;;-3.03;83.08;100300.53;4897931;29;20064;-79
2022/12/14 11:52:04;;;;;;;18.58;10.98;;;;;;;-3.00;82.65;100297.94;4897973;29;20099;-80
2022/12/14 11:54:38;;;;;;;17.88;10.85;;;;;;;-2.98;81.75;100304.63;4898109;29;20041;-84
2022/12/14 11:57:12;;;;;;;21.20;12.40;;;;;;;-2.91;82.18;100300.31;4897680;29;20040;-83
2022/12/14 11:59:46;;;;;;;18.58;10.68;;;;;;;-2.91;82.18;100301.16;4897823;29;20213;-84